createdAt,value
2019-02-27T00:00:09.156Z,5.00
2019-02-27T00:00:46.270Z,4.17
2019-02-27T00:01:22.417Z,5.22
2019-02-27T00:01:57.132Z,5.25
2019-02-27T00:02:31.638Z,4.70
2019-02-27T00:03:06.983Z,5.40
2019-02-27T00:03:41.502Z,4.37
2019-02-27T00:04:16.020Z,4.08
2019-02-27T00:04:50.587Z,4.87
2019-02-27T00:05:25.248Z,5.17
2019-02-27T00:05:59.845Z,5.75
2019-02-27T00:06:34.432Z,4.15
2019-02-27T00:07:08.941Z,5.25
2019-02-27T00:07:43.596Z,5.42
2019-02-27T00:08:18.190Z,4.40
2019-02-27T00:08:53.640Z,5.10
2019-02-27T00:09:28.132Z,5.00
2019-02-27T00:10:05.861Z,5.20
2019-02-27T00:10:40.348Z,4.95
2019-02-27T00:11:14.915Z,5.10
2019-02-27T00:11:49.445Z,4.90
2019-02-27T00:12:23.952Z,4.85
2019-02-27T00:12:58.565Z,5.35
2019-02-27T00:13:33.133Z,4.60
2019-02-27T00:14:07.705Z,4.00
2019-02-27T00:14:42.213Z,5.10
2019-02-27T00:15:16.722Z,5.22
2019-02-27T00:15:52.876Z,4.95
2019-02-27T00:16:27.372Z,4.58
2019-02-27T00:17:01.946Z,5.67
2019-02-27T00:17:36.451Z,5.22
2019-02-27T00:18:10.966Z,4.53
2019-02-27T00:18:45.513Z,5.60
2019-02-27T00:19:20.024Z,5.78
2019-02-27T00:19:54.523Z,5.22
2019-02-27T00:20:29.091Z,4.62
2019-02-27T00:21:03.591Z,6.03
2019-02-27T00:21:38.149Z,4.90
2019-02-27T00:22:17.263Z,5.47
2019-02-27T00:22:50.755Z,5.25
2019-02-27T00:23:25.043Z,4.83
2019-02-27T00:23:59.541Z,5.58
2019-02-27T00:24:34.123Z,5.20
2019-02-27T00:25:08.752Z,5.97
2019-02-27T00:25:43.322Z,7.00
2019-02-27T00:26:17.817Z,4.75
2019-02-27T00:26:52.322Z,5.47
2019-02-27T00:27:26.918Z,5.15
2019-02-27T00:28:01.434Z,5.55
2019-02-27T00:28:35.992Z,5.87
2019-02-27T00:29:10.557Z,5.25
2019-02-27T00:29:45.966Z,4.62
2019-02-27T00:30:20.468Z,5.33
2019-02-27T00:30:54.985Z,5.67
2019-02-27T00:31:29.552Z,4.83
2019-02-27T00:32:04.050Z,5.35
2019-02-27T00:32:38.640Z,4.25
2019-02-27T00:33:13.233Z,5.15
2019-02-27T00:33:47.740Z,4.45
2019-02-27T00:34:22.246Z,5.58
2019-02-27T00:34:56.757Z,4.60
2019-02-27T00:35:31.272Z,4.78
2019-02-27T00:36:05.773Z,5.12
2019-02-27T00:36:44.900Z,4.55
2019-02-27T00:37:19.020Z,4.83
2019-02-27T00:37:53.263Z,4.85
2019-02-27T00:38:27.822Z,4.45
2019-02-27T00:39:02.395Z,4.35
2019-02-27T00:39:36.912Z,4.90
2019-02-27T00:40:11.579Z,4.40
2019-02-27T00:40:46.066Z,4.72
2019-02-27T00:41:21.516Z,3.75
2019-02-27T00:41:56.021Z,4.87
2019-02-27T00:42:33.526Z,5.10
2019-02-27T00:43:06.825Z,4.22
2019-02-27T00:43:41.328Z,4.78
2019-02-27T00:44:15.824Z,4.20
2019-02-27T00:44:50.432Z,4.70
2019-02-27T00:45:25.615Z,3.92
2019-02-27T00:46:00.138Z,4.78
2019-02-27T00:46:34.722Z,5.35
2019-02-27T00:47:09.360Z,4.03
2019-02-27T00:47:43.983Z,5.65
2019-02-27T00:48:18.534Z,4.47
2019-02-27T00:48:53.041Z,4.50
2019-02-27T00:49:29.849Z,4.97
2019-02-27T00:50:07.951Z,4.80
2019-02-27T00:50:42.459Z,5.85
2019-02-27T00:51:16.961Z,5.50
2019-02-27T00:51:51.546Z,4.87
2019-02-27T00:52:26.044Z,5.08
2019-02-27T00:53:00.538Z,5.25
2019-02-27T00:53:35.056Z,4.40
2019-02-27T00:54:09.553Z,4.58
2019-02-27T00:54:44.105Z,4.55
2019-02-27T00:55:18.609Z,5.40
2019-02-27T00:55:53.178Z,5.25
2019-02-27T00:56:27.775Z,4.62
2019-02-27T00:57:02.288Z,4.62
2019-02-27T00:57:36.850Z,4.50
2019-02-27T00:58:11.349Z,5.08
2019-02-27T00:58:45.847Z,5.03
2019-02-27T00:59:20.346Z,5.15
2019-02-27T00:59:54.848Z,4.58
2019-02-27T01:00:29.422Z,5.22
2019-02-27T01:01:04.350Z,3.95
2019-02-27T01:01:38.836Z,5.58
2019-02-27T01:02:13.373Z,5.25
2019-02-27T01:02:47.867Z,6.08
2019-02-27T01:03:25.938Z,4.22
2019-02-27T01:04:01.067Z,4.45
2019-02-27T01:04:35.206Z,4.42
2019-02-27T01:05:10.211Z,4.80
2019-02-27T01:05:44.712Z,4.58
2019-02-27T01:06:19.214Z,4.25
2019-02-27T01:06:53.765Z,4.67
2019-02-27T01:07:28.310Z,4.50
2019-02-27T01:08:02.908Z,5.62
2019-02-27T01:08:37.400Z,4.70
2019-02-27T01:09:12.534Z,4.80
2019-02-27T01:09:47.029Z,3.98
2019-02-27T01:10:21.608Z,3.83
2019-02-27T01:10:56.102Z,4.65
2019-02-27T01:11:30.606Z,4.62
2019-02-27T01:12:05.170Z,4.85
2019-02-27T01:12:39.737Z,5.17
2019-02-27T01:13:14.316Z,3.83
2019-02-27T01:13:48.893Z,4.70
2019-02-27T01:14:23.756Z,4.37
2019-02-27T01:14:58.273Z,4.53
2019-02-27T01:15:32.824Z,5.10
2019-02-27T01:16:07.320Z,4.20
2019-02-27T01:16:41.931Z,4.10
2019-02-27T01:17:16.425Z,4.40
2019-02-27T01:17:50.914Z,3.83
2019-02-27T01:18:30.540Z,4.37
2019-02-27T01:19:02.259Z,3.75
2019-02-27T01:19:39.175Z,4.35
2019-02-27T01:20:15.613Z,4.10
2019-02-27T01:20:50.118Z,3.85
2019-02-27T01:21:24.621Z,4.20
2019-02-27T01:21:59.148Z,4.15
2019-02-27T01:22:33.761Z,4.65
2019-02-27T01:23:10.932Z,4.00
2019-02-27T01:23:50.360Z,4.28
2019-02-27T01:24:24.976Z,4.83
2019-02-27T01:24:59.485Z,5.17
2019-02-27T01:25:34.120Z,4.10
2019-02-27T01:26:08.686Z,4.20
2019-02-27T01:26:43.178Z,4.20
2019-02-27T01:27:17.665Z,4.30
2019-02-27T01:27:52.188Z,4.45
2019-02-27T01:28:26.726Z,4.80
2019-02-27T01:29:01.226Z,4.35
2019-02-27T01:29:35.745Z,4.67
2019-02-27T01:30:15.560Z,4.90
2019-02-27T01:30:50.097Z,4.17
2019-02-27T01:31:24.713Z,5.47
2019-02-27T01:31:59.209Z,4.42
2019-02-27T01:32:33.708Z,4.12
2019-02-27T01:33:08.215Z,4.75
2019-02-27T01:33:42.775Z,5.03
2019-02-27T01:34:17.249Z,3.75
2019-02-27T01:34:51.780Z,4.90
2019-02-27T01:35:26.261Z,4.30
2019-02-27T01:36:00.746Z,5.45
2019-02-27T01:36:35.257Z,4.78
2019-02-27T01:37:09.750Z,4.70
2019-02-27T01:37:44.254Z,4.12
2019-02-27T01:38:18.826Z,4.15
2019-02-27T01:38:53.396Z,4.20
2019-02-27T01:39:27.887Z,4.10
2019-02-27T01:40:02.752Z,4.65
2019-02-27T01:40:37.309Z,4.20
2019-02-27T01:41:11.801Z,4.65
2019-02-27T01:41:46.300Z,3.87
2019-02-27T01:42:20.809Z,3.95
2019-02-27T01:42:55.577Z,4.17
2019-02-27T01:43:30.147Z,3.90
2019-02-27T01:44:04.773Z,3.98
2019-02-27T01:44:39.766Z,3.70
2019-02-27T01:45:20.596Z,4.15
2019-02-27T01:45:54.340Z,4.22
2019-02-27T01:46:29.574Z,3.83
2019-02-27T01:47:04.094Z,4.72
2019-02-27T01:47:38.654Z,4.35
2019-02-27T01:48:13.164Z,4.50
2019-02-27T01:48:50.493Z,4.30
2019-02-27T01:49:33.870Z,3.90
2019-02-27T01:50:32.519Z,4.08
2019-02-27T01:51:15.875Z,4.05
2019-02-27T01:51:51.572Z,3.47
2019-02-27T01:52:33.925Z,3.80
2019-02-27T01:53:10.314Z,4.40
2019-02-27T01:53:48.323Z,4.00
2019-02-27T01:54:26.257Z,4.50
2019-02-27T01:55:03.715Z,3.58
2019-02-27T01:55:48.186Z,3.83
2019-02-27T01:56:28.873Z,4.70
2019-02-27T01:57:06.965Z,3.95
2019-02-27T01:57:51.957Z,3.30
2019-02-27T01:58:30.050Z,4.47
2019-02-27T01:59:06.121Z,4.45
2019-02-27T01:59:42.715Z,4.00
2019-02-27T02:00:23.045Z,3.85
2019-02-27T02:01:03.464Z,4.12
2019-02-27T02:01:37.634Z,4.15
2019-02-27T02:02:16.752Z,4.53
2019-02-27T02:02:57.990Z,4.35
2019-02-27T02:03:32.939Z,4.08
2019-02-27T02:04:10.971Z,4.28
2019-02-27T02:04:47.244Z,3.05
2019-02-27T02:05:26.151Z,3.45
2019-02-27T02:06:05.458Z,3.90
2019-02-27T02:06:46.862Z,4.65
2019-02-27T02:07:40.300Z,4.35
2019-02-27T02:08:15.867Z,3.12
2019-02-27T02:08:53.659Z,3.95
2019-02-27T02:09:39.844Z,4.05
2019-02-27T02:10:27.926Z,3.77
2019-02-27T02:11:04.438Z,3.70
2019-02-27T02:11:51.092Z,4.22
2019-02-27T02:12:28.755Z,4.50
2019-02-27T02:13:14.818Z,4.92
2019-02-27T02:14:03.108Z,4.00
2019-02-27T02:14:54.153Z,3.90
2019-02-27T02:15:54.109Z,4.15
2019-02-27T02:16:34.924Z,4.37
2019-02-27T02:17:38.192Z,3.75
2019-02-27T02:18:16.221Z,3.98
2019-02-27T02:19:12.567Z,4.15
2019-02-27T02:20:18.897Z,3.10
2019-02-27T02:21:11.249Z,4.05
2019-02-27T02:22:21.956Z,3.40
2019-02-27T02:23:13.919Z,4.10
2019-02-27T02:24:04.016Z,4.97
2019-02-27T02:25:05.504Z,3.20
2019-02-27T02:25:47.694Z,3.37
2019-02-27T02:26:48.551Z,3.85
2019-02-27T02:27:45.636Z,3.83
2019-02-27T02:28:32.122Z,3.87
2019-02-27T02:29:30.038Z,3.25
2019-02-27T02:30:44.122Z,3.40
2019-02-27T02:31:34.051Z,3.17
2019-02-27T02:32:24.779Z,3.75
2019-02-27T02:33:37.390Z,3.77
2019-02-27T02:34:31.300Z,3.80
2019-02-27T02:35:28.394Z,3.33
2019-02-27T02:36:26.378Z,3.10
2019-02-27T02:37:21.186Z,4.00
2019-02-27T02:38:13.959Z,3.67
2019-02-27T02:39:19.430Z,3.20
2019-02-27T02:40:05.843Z,3.05
2019-02-27T02:40:52.507Z,3.72
2019-02-27T02:41:52.603Z,3.70
2019-02-27T02:42:51.556Z,3.60
2019-02-27T02:43:54.911Z,3.67
2019-02-27T02:44:57.212Z,3.02
2019-02-27T02:45:58.973Z,3.30
2019-02-27T02:46:45.327Z,3.80
2019-02-27T02:47:27.855Z,3.15
2019-02-27T02:48:09.113Z,3.08
2019-02-27T02:48:54.019Z,4.33
2019-02-27T02:49:50.708Z,3.77
2019-02-27T02:50:43.392Z,3.37
2019-02-27T02:51:34.082Z,3.90
2019-02-27T02:52:40.283Z,3.75
2019-02-27T02:53:26.301Z,3.55
2019-02-27T02:54:22.174Z,3.75
2019-02-27T02:55:37.331Z,3.37
2019-02-27T02:56:24.812Z,3.60
2019-02-27T02:57:10.004Z,3.95
2019-02-27T02:57:59.559Z,3.58
2019-02-27T02:58:47.246Z,3.62
2019-02-27T02:59:52.496Z,3.15
2019-02-27T03:00:39.623Z,3.45
2019-02-27T03:01:21.047Z,2.72
2019-02-27T03:02:23.781Z,3.52
2019-02-27T03:03:06.727Z,2.70
2019-02-27T03:03:50.084Z,3.10
2019-02-27T03:04:47.925Z,3.80
2019-02-27T03:05:39.899Z,3.15
2019-02-27T03:06:34.666Z,2.87
2019-02-27T03:07:29.678Z,3.08
2019-02-27T03:08:19.959Z,2.65
2019-02-27T03:09:20.889Z,2.70
2019-02-27T03:10:13.120Z,2.98
2019-02-27T03:11:05.643Z,3.52
2019-02-27T03:12:18.505Z,3.00
2019-02-27T03:13:05.761Z,2.98
2019-02-27T03:14:07.141Z,3.00
2019-02-27T03:14:54.536Z,2.80
2019-02-27T03:15:44.199Z,3.40
2019-02-27T03:16:42.386Z,3.30
2019-02-27T03:17:36.238Z,3.45
2019-02-27T03:18:37.832Z,3.17
2019-02-27T03:19:23.156Z,3.90
2019-02-27T03:20:21.827Z,3.22
2019-02-27T03:21:04.235Z,3.37
2019-02-27T03:21:44.474Z,2.45
2019-02-27T03:22:43.156Z,3.22
2019-02-27T03:23:26.373Z,2.92
2019-02-27T03:24:11.215Z,2.60
2019-02-27T03:24:51.809Z,2.90
2019-02-27T03:25:51.717Z,2.90
2019-02-27T03:26:54.848Z,2.70
2019-02-27T03:27:52.511Z,2.72
2019-02-27T03:28:40.919Z,3.35
2019-02-27T03:29:53.879Z,2.90
2019-02-27T03:30:51.089Z,2.95
2019-02-27T03:31:57.505Z,2.98
2019-02-27T03:32:59.503Z,3.27
2019-02-27T03:34:10.975Z,3.22
2019-02-27T03:35:16.109Z,3.00
2019-02-27T03:36:14.471Z,2.22
2019-02-27T03:37:13.177Z,2.40
2019-02-27T03:37:52.469Z,2.65
2019-02-27T03:38:42.545Z,3.52
2019-02-27T03:39:46.056Z,2.85
2019-02-27T03:40:34.489Z,2.85
2019-02-27T03:41:22.533Z,3.10
2019-02-27T03:42:23.738Z,3.45
2019-02-27T03:43:23.817Z,3.30
2019-02-27T03:44:27.455Z,3.05
2019-02-27T03:45:19.757Z,2.92
2019-02-27T03:46:07.296Z,3.60
2019-02-27T03:46:47.510Z,2.50
2019-02-27T03:47:30.758Z,3.17
2019-02-27T03:48:16.873Z,3.10
2019-02-27T03:49:10.857Z,3.17
2019-02-27T03:50:00.503Z,3.52
2019-02-27T03:50:50.732Z,3.72
2019-02-27T03:51:46.821Z,3.42
2019-02-27T03:52:36.341Z,3.77
2019-02-27T03:53:21.289Z,3.50
2019-02-27T03:54:10.860Z,3.05
2019-02-27T03:54:57.063Z,2.90
2019-02-27T03:55:41.710Z,3.10
2019-02-27T03:56:22.114Z,3.20
2019-02-27T03:57:25.460Z,3.08
2019-02-27T03:58:08.059Z,3.12
2019-02-27T03:59:06.224Z,2.98
2019-02-27T04:00:18.322Z,2.90
2019-02-27T04:00:57.004Z,2.92
2019-02-27T04:01:43.668Z,2.52
2019-02-27T04:02:30.053Z,2.80
2019-02-27T04:03:17.055Z,3.60
2019-02-27T04:04:10.622Z,3.05
2019-02-27T04:04:56.666Z,2.85
2019-02-27T04:05:54.659Z,3.00
2019-02-27T04:06:56.465Z,3.37
2019-02-27T04:07:50.478Z,2.67
2019-02-27T04:08:43.501Z,2.50
2019-02-27T04:09:18.649Z,2.90
2019-02-27T04:09:55.064Z,2.50
2019-02-27T04:10:30.951Z,3.10
2019-02-27T04:11:05.655Z,3.30
2019-02-27T04:11:41.460Z,3.22
2019-02-27T04:12:16.430Z,2.70
2019-02-27T04:12:51.733Z,3.45
2019-02-27T04:13:27.893Z,3.27
2019-02-27T04:14:05.573Z,2.62
2019-02-27T04:14:42.163Z,2.75
2019-02-27T04:15:18.124Z,3.75
2019-02-27T04:15:53.788Z,3.40
2019-02-27T04:16:30.408Z,3.30
2019-02-27T04:17:07.332Z,3.15
2019-02-27T04:17:40.291Z,2.90
2019-02-27T04:18:13.710Z,2.67
2019-02-27T04:18:48.303Z,3.47
2019-02-27T04:19:22.870Z,3.55
2019-02-27T04:19:58.002Z,3.12
2019-02-27T04:20:32.565Z,3.83
2019-02-27T04:21:07.310Z,3.75
2019-02-27T04:21:41.808Z,3.42
2019-02-27T04:22:16.330Z,2.92
2019-02-27T04:22:50.987Z,2.87
2019-02-27T04:23:25.547Z,2.98
2019-02-27T04:24:01.140Z,2.92
2019-02-27T04:24:35.698Z,2.47
2019-02-27T04:25:10.367Z,2.65
2019-02-27T04:25:45.852Z,2.62
2019-02-27T04:26:20.445Z,3.47
2019-02-27T04:26:54.926Z,3.00
2019-02-27T04:27:29.423Z,3.08
2019-02-27T04:28:03.989Z,4.35
2019-02-27T04:28:38.568Z,3.00
2019-02-27T04:29:13.189Z,3.52
2019-02-27T04:29:47.678Z,2.90
2019-02-27T04:30:22.258Z,3.00
2019-02-27T04:30:56.868Z,3.47
2019-02-27T04:31:31.418Z,3.08
2019-02-27T04:32:06.009Z,2.95
2019-02-27T04:32:40.570Z,3.35
2019-02-27T04:33:15.080Z,3.30
2019-02-27T04:33:49.557Z,2.67
2019-02-27T04:34:24.369Z,2.58
2019-02-27T04:34:58.852Z,2.70
2019-02-27T04:35:34.328Z,3.15
2019-02-27T04:36:12.469Z,3.00
2019-02-27T04:36:47.288Z,2.90
2019-02-27T04:37:21.474Z,2.55
2019-02-27T04:37:56.038Z,4.22
2019-02-27T04:38:30.516Z,2.65
2019-02-27T04:39:06.766Z,2.70
2019-02-27T04:39:41.306Z,3.40
2019-02-27T04:40:15.844Z,3.00
2019-02-27T04:40:50.472Z,3.17
2019-02-27T04:41:25.076Z,2.83
2019-02-27T04:41:59.561Z,3.17
2019-02-27T04:42:34.066Z,2.98
2019-02-27T04:43:08.558Z,3.30
2019-02-27T04:43:43.078Z,3.33
2019-02-27T04:44:17.683Z,3.67
2019-02-27T04:44:52.337Z,3.33
2019-02-27T04:45:26.816Z,2.90
2019-02-27T04:46:01.331Z,2.90
2019-02-27T04:46:35.829Z,4.00
2019-02-27T04:47:10.359Z,3.02
2019-02-27T04:47:44.861Z,3.27
2019-02-27T04:48:19.362Z,3.67
2019-02-27T04:48:53.928Z,3.60
2019-02-27T04:49:28.413Z,3.30
2019-02-27T04:50:02.910Z,3.25
2019-02-27T04:50:37.397Z,3.40
2019-02-27T04:51:11.884Z,3.72
2019-02-27T04:51:48.046Z,3.62
2019-02-27T04:52:24.416Z,3.77
2019-02-27T04:52:58.822Z,2.52
2019-02-27T04:53:33.339Z,3.60
2019-02-27T04:54:07.914Z,3.77
2019-02-27T04:54:42.573Z,3.83
2019-02-27T04:55:17.069Z,3.20
2019-02-27T04:55:51.563Z,3.83
2019-02-27T04:56:26.057Z,3.92
2019-02-27T04:57:00.552Z,4.10
2019-02-27T04:57:35.049Z,3.80
2019-02-27T04:58:09.685Z,3.98
2019-02-27T04:58:44.388Z,3.40
2019-02-27T04:59:19.332Z,3.90
2019-02-27T04:59:54.002Z,3.80
2019-02-27T05:00:28.485Z,2.92
2019-02-27T05:01:02.992Z,3.15
2019-02-27T05:01:37.505Z,3.12
2019-02-27T05:02:14.359Z,3.50
2019-02-27T05:02:50.476Z,3.40
2019-02-27T05:03:25.789Z,3.40
2019-02-27T05:04:01.403Z,3.05
2019-02-27T05:04:36.645Z,3.02
2019-02-27T05:05:11.143Z,3.20
2019-02-27T05:05:45.650Z,3.10
2019-02-27T05:06:20.202Z,2.83
2019-02-27T05:06:54.689Z,3.95
2019-02-27T05:07:29.252Z,3.30
2019-02-27T05:08:03.748Z,3.33
2019-02-27T05:08:38.251Z,3.50
2019-02-27T05:09:13.258Z,2.80
2019-02-27T05:09:47.818Z,4.12
2019-02-27T05:10:22.305Z,3.15
2019-02-27T05:10:56.802Z,3.12
2019-02-27T05:11:31.298Z,3.70
2019-02-27T05:12:05.820Z,3.08
2019-02-27T05:12:40.330Z,3.60
2019-02-27T05:13:14.816Z,2.58
2019-02-27T05:13:51.826Z,3.25
2019-02-27T05:14:27.461Z,3.75
2019-02-27T05:15:04.195Z,2.90
2019-02-27T05:15:39.485Z,3.42
2019-02-27T05:16:14.792Z,3.08
2019-02-27T05:16:49.389Z,2.47
2019-02-27T05:17:23.900Z,3.02
2019-02-27T05:17:58.892Z,3.85
2019-02-27T05:18:33.545Z,2.92
2019-02-27T05:19:08.040Z,3.65
2019-02-27T05:19:42.654Z,3.27
2019-02-27T05:20:17.253Z,3.05
2019-02-27T05:20:51.779Z,3.35
2019-02-27T05:21:27.218Z,3.20
2019-02-27T05:22:01.697Z,3.92
2019-02-27T05:22:36.190Z,3.00
2019-02-27T05:23:10.693Z,3.20
2019-02-27T05:23:45.175Z,3.35
2019-02-27T05:24:19.690Z,2.77
2019-02-27T05:24:54.254Z,3.40
2019-02-27T05:25:28.749Z,3.52
2019-02-27T05:26:03.312Z,2.77
2019-02-27T05:26:37.814Z,3.22
2019-02-27T05:27:12.301Z,3.50
2019-02-27T05:27:46.870Z,2.80
2019-02-27T05:28:21.357Z,2.98
2019-02-27T05:28:56.044Z,3.83
2019-02-27T05:29:30.537Z,3.20
2019-02-27T05:30:12.037Z,3.00
2019-02-27T05:30:45.236Z,4.00
2019-02-27T05:31:20.604Z,3.42
2019-02-27T05:31:55.113Z,3.25
2019-02-27T05:32:29.673Z,3.60
2019-02-27T05:33:04.275Z,3.62
2019-02-27T05:33:39.857Z,3.60
2019-02-27T05:34:14.594Z,3.00
2019-02-27T05:34:50.559Z,3.25
2019-02-27T05:35:25.312Z,3.65
2019-02-27T05:35:59.907Z,3.30
2019-02-27T05:36:34.574Z,3.62
2019-02-27T05:37:09.209Z,3.22
2019-02-27T05:37:43.700Z,4.17
2019-02-27T05:38:18.522Z,3.42
2019-02-27T05:38:54.357Z,2.92
2019-02-27T05:39:28.897Z,3.62
2019-02-27T05:40:04.074Z,3.08
2019-02-27T05:40:38.685Z,2.90
2019-02-27T05:41:13.192Z,3.25
2019-02-27T05:41:47.724Z,3.02
2019-02-27T05:42:22.331Z,2.70
2019-02-27T05:42:56.822Z,3.35
2019-02-27T05:43:31.455Z,3.15
2019-02-27T05:44:05.954Z,2.70
2019-02-27T05:44:40.529Z,3.15
2019-02-27T05:45:15.016Z,3.25
2019-02-27T05:45:49.608Z,3.00
2019-02-27T05:46:24.207Z,2.85
2019-02-27T05:46:58.692Z,3.70
2019-02-27T05:47:33.191Z,3.00
2019-02-27T05:48:07.712Z,3.52
2019-02-27T05:48:42.283Z,3.30
2019-02-27T05:49:16.919Z,3.17
2019-02-27T05:49:51.408Z,3.62
2019-02-27T05:50:25.893Z,3.17
2019-02-27T05:51:00.380Z,2.92
2019-02-27T05:51:34.887Z,3.00
2019-02-27T05:52:11.854Z,3.05
2019-02-27T05:52:48.549Z,2.90
2019-02-27T05:53:22.849Z,3.50
2019-02-27T05:53:58.514Z,2.80
2019-02-27T05:54:33.698Z,3.17
2019-02-27T05:55:09.022Z,3.08
2019-02-27T05:55:43.620Z,3.30
2019-02-27T05:56:18.111Z,2.70
2019-02-27T05:56:52.605Z,3.30
2019-02-27T05:57:27.150Z,3.15
2019-02-27T05:58:01.657Z,3.15
2019-02-27T05:58:36.222Z,3.20
2019-02-27T05:59:10.794Z,3.33
2019-02-27T05:59:45.285Z,3.42
2019-02-27T06:00:21.142Z,3.30
2019-02-27T06:00:55.713Z,3.50
2019-02-27T06:01:30.272Z,3.05
2019-02-27T06:02:04.769Z,3.25
2019-02-27T06:02:39.262Z,3.70
2019-02-27T06:03:15.888Z,3.72
2019-02-27T06:03:52.109Z,3.87
2019-02-27T06:04:26.297Z,3.22
2019-02-27T06:05:00.851Z,3.25
2019-02-27T06:05:36.069Z,3.50
2019-02-27T06:06:11.908Z,3.75
2019-02-27T06:06:46.999Z,3.65
2019-02-27T06:07:21.479Z,3.87
2019-02-27T06:07:56.049Z,4.20
2019-02-27T06:08:35.161Z,4.00
2019-02-27T06:09:09.881Z,4.53
2019-02-27T06:09:44.486Z,4.50
2019-02-27T06:10:20.178Z,4.30
2019-02-27T06:10:56.176Z,4.87
2019-02-27T06:11:33.030Z,3.95
2019-02-27T06:12:07.618Z,3.50
2019-02-27T06:12:43.311Z,3.62
2019-02-27T06:13:17.912Z,4.67
2019-02-27T06:13:52.437Z,4.22
2019-02-27T06:14:26.944Z,3.65
2019-02-27T06:15:01.451Z,4.58
2019-02-27T06:15:35.936Z,4.15
2019-02-27T06:16:10.683Z,4.65
2019-02-27T06:16:45.177Z,4.00
2019-02-27T06:17:19.714Z,3.70
2019-02-27T06:17:54.283Z,3.75
2019-02-27T06:18:28.769Z,3.33
2019-02-27T06:19:03.284Z,4.40
2019-02-27T06:19:38.401Z,3.77
2019-02-27T06:20:13.352Z,3.77
2019-02-27T06:20:47.841Z,4.85
2019-02-27T06:21:22.408Z,4.10
2019-02-27T06:21:56.949Z,3.92
2019-02-27T06:22:31.521Z,3.52
2019-02-27T06:23:07.323Z,4.00
2019-02-27T06:23:41.987Z,3.65
2019-02-27T06:24:16.468Z,4.00
2019-02-27T06:24:50.968Z,4.10
2019-02-27T06:25:25.549Z,4.03
2019-02-27T06:26:00.263Z,3.33
2019-02-27T06:26:34.819Z,3.65
2019-02-27T06:27:09.346Z,4.20
2019-02-27T06:27:43.842Z,3.65
2019-02-27T06:28:19.314Z,4.00
2019-02-27T06:28:55.712Z,5.20
2019-02-27T06:29:30.239Z,4.55
2019-02-27T06:30:07.638Z,4.17
2019-02-27T06:30:42.207Z,3.45
2019-02-27T06:31:16.773Z,4.80
2019-02-27T06:31:51.299Z,4.05
2019-02-27T06:32:25.955Z,4.97
2019-02-27T06:33:00.707Z,4.30
2019-02-27T06:33:35.205Z,4.40
2019-02-27T06:34:09.805Z,4.78
2019-02-27T06:34:44.380Z,4.35
2019-02-27T06:35:18.873Z,4.40
2019-02-27T06:35:54.580Z,5.08
2019-02-27T06:36:29.107Z,5.05
2019-02-27T06:37:03.796Z,4.35
2019-02-27T06:37:39.132Z,5.15
2019-02-27T06:38:15.126Z,4.87
2019-02-27T06:38:49.655Z,5.30
2019-02-27T06:39:24.243Z,5.08
2019-02-27T06:39:59.717Z,4.10
2019-02-27T06:40:34.213Z,4.80
2019-02-27T06:41:08.726Z,5.20
2019-02-27T06:41:43.330Z,5.17
2019-02-27T06:42:17.959Z,5.22
2019-02-27T06:42:53.847Z,4.87
2019-02-27T06:43:29.064Z,4.97
2019-02-27T06:44:03.628Z,4.90
2019-02-27T06:44:39.274Z,4.97
2019-02-27T06:45:16.640Z,5.55
2019-02-27T06:45:51.128Z,5.17
2019-02-27T06:46:25.634Z,6.35
2019-02-27T06:47:00.334Z,5.60
2019-02-27T06:47:35.531Z,4.67
2019-02-27T06:48:10.764Z,5.17
2019-02-27T06:48:45.320Z,5.08
2019-02-27T06:49:19.887Z,4.35
2019-02-27T06:49:54.536Z,4.10
2019-02-27T06:50:29.059Z,3.75
2019-02-27T06:51:03.549Z,4.78
2019-02-27T06:51:38.179Z,4.15
2019-02-27T06:52:12.676Z,4.80
2019-02-27T06:52:47.192Z,4.55
2019-02-27T06:53:21.705Z,3.30
2019-02-27T06:53:56.206Z,3.70
2019-02-27T06:54:30.712Z,3.25
2019-02-27T06:55:08.484Z,3.42
2019-02-27T06:55:42.980Z,3.60
2019-02-27T06:56:17.490Z,3.77
2019-02-27T06:56:52.039Z,3.40
2019-02-27T06:57:26.865Z,3.20
2019-02-27T06:58:01.529Z,2.92
2019-02-27T06:58:36.025Z,4.20
2019-02-27T06:59:10.527Z,2.87
2019-02-27T06:59:46.091Z,3.25
2019-02-27T07:00:23.695Z,4.25
2019-02-27T07:00:58.605Z,4.28
2019-02-27T07:01:33.250Z,3.22
2019-02-27T07:02:07.825Z,3.35
2019-02-27T07:02:42.375Z,3.20
2019-02-27T07:03:16.978Z,4.85
2019-02-27T07:03:51.475Z,3.20
2019-02-27T07:04:26.885Z,4.05
2019-02-27T07:05:01.609Z,3.42
2019-02-27T07:05:36.181Z,3.12
2019-02-27T07:06:10.713Z,3.47
2019-02-27T07:06:45.277Z,3.33
2019-02-27T07:07:20.024Z,3.27
2019-02-27T07:07:54.587Z,2.92
2019-02-27T07:08:29.157Z,3.12
2019-02-27T07:09:05.244Z,2.50
2019-02-27T07:09:39.745Z,2.95
2019-02-27T07:10:19.397Z,3.67
2019-02-27T07:10:52.240Z,3.33
2019-02-27T07:11:26.753Z,3.30
2019-02-27T07:12:01.318Z,3.10
2019-02-27T07:12:35.882Z,3.37
2019-02-27T07:13:10.381Z,4.33
2019-02-27T07:13:44.871Z,3.60
2019-02-27T07:14:19.379Z,3.20
2019-02-27T07:14:53.949Z,4.85
2019-02-27T07:15:28.436Z,2.85
2019-02-27T07:16:02.933Z,3.67
2019-02-27T07:16:37.515Z,2.85
2019-02-27T07:17:12.008Z,5.45
2019-02-27T07:17:46.528Z,5.50
2019-02-27T07:18:21.027Z,4.08
2019-02-27T07:18:55.786Z,4.12
2019-02-27T07:19:30.276Z,4.22
2019-02-27T07:20:06.409Z,3.55
2019-02-27T07:20:40.971Z,3.72
2019-02-27T07:21:15.566Z,3.42
2019-02-27T07:21:50.047Z,4.28
2019-02-27T07:22:24.594Z,4.25
2019-02-27T07:22:59.475Z,4.00
2019-02-27T07:23:35.293Z,3.98
2019-02-27T07:24:09.882Z,3.80
2019-02-27T07:24:44.409Z,3.50
2019-02-27T07:25:19.174Z,3.77
2019-02-27T07:25:53.681Z,4.55
2019-02-27T07:26:28.245Z,3.80
2019-02-27T07:27:02.753Z,3.67
2019-02-27T07:27:37.312Z,3.90
2019-02-27T07:28:11.818Z,3.58
2019-02-27T07:28:46.366Z,3.42
2019-02-27T07:29:22.067Z,4.45
2019-02-27T07:29:57.130Z,3.52
2019-02-27T07:30:31.989Z,3.92
2019-02-27T07:31:06.544Z,3.45
2019-02-27T07:31:41.037Z,3.70
2019-02-27T07:32:15.572Z,3.00
2019-02-27T07:32:50.065Z,3.40
2019-02-27T07:33:24.554Z,3.40
2019-02-27T07:33:59.055Z,3.80
2019-02-27T07:34:33.631Z,3.75
2019-02-27T07:35:10.100Z,4.17
2019-02-27T07:35:44.587Z,3.83
2019-02-27T07:36:19.083Z,3.77
2019-02-27T07:36:53.573Z,2.98
2019-02-27T07:37:28.160Z,3.50
2019-02-27T07:38:02.664Z,2.60
2019-02-27T07:38:37.165Z,3.87
2019-02-27T07:39:11.652Z,4.17
2019-02-27T07:39:46.163Z,3.60
2019-02-27T07:40:20.998Z,3.42
2019-02-27T07:40:55.773Z,3.35
2019-02-27T07:41:30.627Z,3.60
2019-02-27T07:42:05.152Z,3.52
2019-02-27T07:42:39.665Z,4.53
2019-02-27T07:43:14.167Z,4.33
2019-02-27T07:43:48.647Z,4.00
2019-02-27T07:44:23.147Z,3.72
2019-02-27T07:44:57.652Z,4.20
2019-02-27T07:45:32.207Z,3.98
2019-02-27T07:46:06.860Z,5.10
2019-02-27T07:46:41.485Z,3.52
2019-02-27T07:47:16.038Z,4.15
2019-02-27T07:47:50.636Z,3.70
2019-02-27T07:48:25.134Z,4.10
2019-02-27T07:49:01.475Z,5.75
2019-02-27T07:49:35.895Z,5.00
2019-02-27T07:50:13.022Z,5.03
2019-02-27T07:50:49.121Z,3.50
2019-02-27T07:51:23.964Z,3.80
2019-02-27T07:51:58.466Z,6.62
2019-02-27T07:52:33.333Z,4.28
2019-02-27T07:53:07.966Z,5.25
2019-02-27T07:53:42.560Z,5.20
2019-02-27T07:54:17.436Z,4.10
2019-02-27T07:54:52.065Z,4.15
2019-02-27T07:55:28.447Z,4.40
2019-02-27T07:56:02.832Z,5.08
2019-02-27T07:56:37.400Z,4.70
2019-02-27T07:57:11.932Z,4.30
2019-02-27T07:57:46.506Z,4.60
2019-02-27T07:58:21.022Z,4.45
2019-02-27T07:58:56.498Z,3.85
2019-02-27T07:59:30.976Z,4.95
2019-02-27T08:00:14.984Z,4.12
2019-02-27T08:00:49.953Z,3.95
2019-02-27T08:01:24.256Z,5.47
2019-02-27T08:02:02.389Z,4.30
2019-02-27T08:02:36.182Z,4.30
2019-02-27T08:03:13.023Z,4.83
2019-02-27T08:03:46.977Z,4.15
2019-02-27T08:04:22.974Z,3.60
2019-02-27T08:04:57.633Z,4.97
2019-02-27T08:05:32.142Z,5.60
2019-02-27T08:06:06.646Z,4.42
2019-02-27T08:06:41.554Z,4.40
2019-02-27T08:07:16.245Z,4.70
2019-02-27T08:07:50.905Z,4.28
2019-02-27T08:08:25.407Z,5.20
2019-02-27T08:09:00.417Z,5.05
2019-02-27T08:09:35.010Z,4.22
2019-02-27T08:10:15.513Z,3.98
2019-02-27T08:10:50.018Z,4.28
2019-02-27T08:11:26.418Z,5.47
2019-02-27T08:12:01.055Z,4.58
2019-02-27T08:12:35.573Z,5.33
2019-02-27T08:13:10.147Z,3.87
2019-02-27T08:13:44.663Z,4.45
2019-02-27T08:14:19.229Z,5.10
2019-02-27T08:14:53.711Z,4.55
2019-02-27T08:15:28.232Z,4.70
2019-02-27T08:16:02.726Z,4.78
2019-02-27T08:16:37.238Z,4.25
2019-02-27T08:17:17.587Z,4.30
2019-02-27T08:17:48.392Z,3.90
2019-02-27T08:18:29.751Z,4.70
2019-02-27T08:18:59.135Z,4.55
2019-02-27T08:19:33.798Z,4.17
2019-02-27T08:20:09.817Z,4.78
2019-02-27T08:20:44.327Z,4.00
2019-02-27T08:21:18.898Z,4.40
2019-02-27T08:21:53.457Z,4.75
2019-02-27T08:22:27.946Z,4.87
2019-02-27T08:23:02.446Z,6.97
2019-02-27T08:23:36.990Z,6.00
2019-02-27T08:24:11.476Z,5.67
2019-02-27T08:24:45.982Z,6.00
2019-02-27T08:25:20.482Z,6.22
2019-02-27T08:25:54.986Z,5.90
2019-02-27T08:26:29.539Z,5.90
2019-02-27T08:27:04.075Z,5.50
2019-02-27T08:27:43.061Z,5.40
2019-02-27T08:28:14.774Z,5.28